Monday, November 20, 2017, 7:07 PM GMT
Back to Local

CYQB, Quebec, Que

Location: , , Canada Lat: 46.8
Local Time: 7:07 PM GMT (19:07 GMT) Lon: -71.383
Time Zone: GMT Elev: 229 ft

Show me the last for .
Show Coded

Time T Td Feel RH Dir Speed Gust Alt SLP Vis Weather Sky Remarks
2017-11-20 18:00 18 7 -1 61 250° 21 26 29.77 29.79 15 VCSH BKN027 BKN045 None
2017-11-20 17:04 19 7 0 57 250° 23 32 29.75 29.77 15 -SHSN FEW015 BKN025 BKN080 None
2017-11-20 17:00 19 7 1 57 250° 21 26 29.75 29.77 15 VCSH FEW015 BKN025 BKN080 None
2017-11-20 16:00 18 7 2 61 270° 17 - 29.74 29.76 15 VCSH FEW015 SCT030 BKN080 None
2017-11-20 15:00 19 9 4 62 270° 17 - 29.73 29.75 15 VCSH FEW020 SCT040 BKN080 None
2017-11-20 14:00 19 9 2 62 270° 17 24 29.70 29.72 15 VCSH FEW015 SCT030 BKN090 None
2017-11-20 13:29 19 9 1 62 270° 21 26 29.69 29.71 10 VCSH SCT015 BKN030 OVC090 None
2017-11-20 13:05 19 12 2 73 270° 17 25 29.68 29.70 5 -SHSN BR SCT015 BKN030 None
2017-11-20 13:00 19 14 3 79 260° 21 - 29.67 29.69 2 -SHSN BR SCT015 BKN030 None
2017-11-20 12:51 21 14 6 73 260° 18 - 29.66 29.68 2 -SHSN BR SCT015 BKN030 None
2017-11-20 12:41 21 14 4 73 260° 18 28 29.66 29.68 6 -SHSN BR FEW015 BKN030 OVC080 None
2017-11-20 12:27 21 14 8 73 260° 15 - 29.66 29.68 10 VCSH FEW015 SCT030 BKN080 None
2017-11-20 12:00 21 14 7 73 260° 17 - 29.65 29.67 10 -SN FEW012 SCT035 BKN070 None
2017-11-20 11:00 21 14 6 73 260° 21 - 29.63 29.64 4 -SN SCT012 SCT030 OVC065 None
2017-11-20 10:00 21 16 5 79 260° 14 22 29.61 29.63 10 -SN SCT011 BKN070 OVC100 None
2017-11-20 09:00 23 16 8 73 260° 22 - 29.59 29.60 15 -SN SCT018 OVC070 None
2017-11-20 08:00 23 18 11 79 250° 14 - 29.58 29.59 15 -SN SCT012 OVC032 None
2017-11-20 07:00 23 14 9 67 260° 18 - 29.55 29.57 15 -SN SCT012 BKN024 OVC032 None
2017-11-20 06:00 23 16 10 73 250° 15 - 29.52 29.53 15 -SN SCT012 BKN024 OVC032 None
2017-11-20 05:00 25 16 8 68 260° 21 30 29.48 29.49 15 -SN BKN024 None
2017-11-20 04:00 25 18 8 73 260° 22 31 29.45 29.47 15 -SN FEW010 OVC030 Pressure rising rapidly
2017-11-20 03:47 27 18 10 68 260° 23 30 29.44 29.46 15 -SN OVC024 None
2017-11-20 03:24 27 19 12 73 260° 23 - 29.43 29.44 15 FEW010 OVC031 None
2017-11-20 03:00 27 19 11 73 260° 21 29 29.42 29.44 15 -SN FEW010 OVC033 Pressure rising rapidly
2017-11-20 02:00 27 21 12 79 260° 18 24 29.39 29.40 10 -SN FEW010 OVC037 None
2017-11-20 01:00 27 21 13 79 260° 20 - 29.38 29.39 10 -SN FEW010 OVC033 None
2017-11-20 00:00 27 23 12 86 250° 17 23 29.35 29.37 10 -SN FEW010 OVC033 Pressure rising rapidly
2017-11-19 23:00 28 23 13 79 250° 20 28 29.31 29.33 10 -SN FEW010 BKN036 OVC160 Pressure rising rapidly
2017-11-19 22:00 28 25 16 86 250° 17 - 29.26 29.28 10 -SN FEW010 BKN030 OVC050 Pressure rising rapidly
2017-11-19 21:00 30 27 15 86 260° 21 32 29.21 29.23 5 -SN FEW010 FEW018 BKN048 Pressure rising rapidly
2017-11-19 20:37 30 27 15 86 260° 24 30 29.18 29.20 4 -SN SCT015 OVC040 None
2017-11-19 20:00 32 30 20 92 250° 21 - 29.14 29.15 2 -SN FEW010 BKN014 OVC040 Pressure rising rapidly
2017-11-19 19:43 32 30 20 92 240° 20 - 29.12 29.13 2 -SN BKN014 OVC040 None

Support USWX by starting your Amazon purchase here.